createdAt,value
2022-11-06T00:02:09.660Z,3.40
2022-11-06T00:05:15.711Z,3.40
2022-11-06T00:08:01.052Z,3.30
2022-11-06T00:10:46.384Z,3.40
2022-11-06T00:13:32.219Z,3.50
2022-11-06T00:16:18.448Z,3.50
2022-11-06T00:19:04.048Z,3.50
2022-11-06T00:21:49.640Z,3.50
2022-11-06T00:24:35.247Z,3.50
2022-11-06T00:27:20.872Z,3.60
2022-11-06T00:30:09.280Z,3.60
2022-11-06T00:32:54.576Z,3.60
2022-11-06T00:35:40.579Z,3.70
2022-11-06T00:38:26.417Z,3.70
2022-11-06T00:41:14.621Z,3.70
2022-11-06T00:44:01.998Z,3.70
2022-11-06T00:46:47.596Z,3.70
2022-11-06T00:49:33.048Z,3.80
2022-11-06T00:52:18.745Z,3.80
2022-11-06T00:55:04.416Z,3.80
2022-11-06T00:57:50.075Z,3.80
2022-11-06T01:00:35.736Z,3.80
2022-11-06T01:03:21.090Z,3.90
2022-11-06T01:06:16.025Z,3.80
2022-11-06T01:09:02.301Z,3.90
2022-11-06T01:12:12.448Z,3.80
2022-11-06T01:14:55.809Z,3.70
2022-11-06T01:17:41.465Z,3.70
2022-11-06T01:20:26.868Z,3.80
2022-11-06T01:23:12.504Z,3.80
2022-11-06T01:26:03.121Z,3.80
2022-11-06T01:28:49.109Z,3.80
2022-11-06T01:31:35.287Z,3.80
2022-11-06T01:34:20.779Z,3.80
2022-11-06T01:37:09.085Z,3.80
2022-11-06T01:39:57.705Z,3.90
2022-11-06T01:42:43.256Z,3.90
2022-11-06T01:45:38.906Z,3.90
2022-11-06T01:48:26.691Z,3.90
2022-11-06T01:51:13.232Z,3.80
2022-11-06T01:53:59.200Z,3.80
2022-11-06T01:56:47.886Z,3.70
2022-11-06T01:59:36.502Z,3.80
2022-11-06T02:02:22.979Z,3.70
2022-11-06T02:05:09.099Z,3.70
2022-11-06T02:07:56.363Z,3.80
2022-11-06T02:10:43.093Z,3.80
2022-11-06T02:13:46.773Z,3.80
2022-11-06T02:16:52.025Z,3.80
2022-11-06T02:19:47.118Z,3.70
2022-11-06T02:22:58.278Z,3.70
2022-11-06T02:25:48.612Z,3.70
2022-11-06T02:28:39.906Z,3.70
2022-11-06T02:31:29.647Z,3.70
2022-11-06T02:34:16.855Z,3.70
2022-11-06T02:37:08.305Z,3.70
2022-11-06T02:39:58.268Z,3.60
2022-11-06T02:42:47.741Z,3.40
2022-11-06T02:45:43.761Z,3.20
2022-11-06T02:48:42.218Z,3.20
2022-11-06T02:51:32.264Z,3.30
2022-11-06T02:54:21.601Z,3.30
2022-11-06T02:57:14.718Z,3.30
2022-11-06T03:00:05.623Z,3.40
2022-11-06T03:02:58.044Z,3.30
2022-11-06T03:05:49.185Z,3.30
2022-11-06T03:08:50.145Z,3.20
2022-11-06T03:11:39.312Z,3.20
2022-11-06T03:14:34.695Z,3.20
2022-11-06T03:17:29.346Z,3.20
2022-11-06T03:20:25.136Z,3.10
2022-11-06T03:23:24.848Z,3.10
2022-11-06T03:26:18.312Z,3.10
2022-11-06T03:29:13.118Z,3.10
2022-11-06T03:32:16.291Z,3.10
2022-11-06T03:35:13.199Z,3.10
2022-11-06T03:38:18.695Z,3.10
2022-11-06T03:41:13.094Z,2.90
2022-11-06T03:44:01.238Z,2.90
2022-11-06T03:47:00.428Z,2.90
2022-11-06T03:50:12.761Z,2.80
2022-11-06T03:53:05.508Z,2.80
2022-11-06T03:55:57.031Z,2.80
2022-11-06T03:58:46.880Z,2.80
2022-11-06T04:01:36.569Z,2.80
2022-11-06T04:04:33.625Z,2.80
2022-11-06T04:07:27.062Z,2.80
2022-11-06T04:10:31.025Z,2.90
2022-11-06T04:13:36.573Z,2.90
2022-11-06T04:16:22.670Z,2.90
2022-11-06T04:19:19.374Z,3.00
2022-11-06T04:22:19.692Z,2.90
2022-11-06T04:25:33.147Z,2.90
2022-11-06T04:28:48.253Z,2.90
2022-11-06T04:31:41.327Z,2.80
2022-11-06T04:34:29.650Z,2.80
2022-11-06T04:37:38.022Z,2.80
2022-11-06T04:40:33.642Z,2.80
2022-11-06T04:43:23.205Z,2.80
2022-11-06T04:46:12.634Z,2.90
2022-11-06T04:48:58.980Z,2.80
2022-11-06T04:51:47.391Z,2.70
2022-11-06T04:54:33.441Z,2.60
2022-11-06T04:57:19.087Z,2.60
2022-11-06T05:00:05.036Z,2.60
2022-11-06T05:02:50.566Z,2.70
2022-11-06T05:05:36.180Z,2.60
2022-11-06T05:08:22.124Z,2.60
2022-11-06T05:11:08.465Z,2.60
2022-11-06T05:13:54.622Z,2.60
2022-11-06T05:16:40.252Z,2.60
2022-11-06T05:19:26.100Z,2.60
2022-11-06T05:22:30.403Z,2.60
2022-11-06T05:25:16.617Z,2.50
2022-11-06T05:28:06.646Z,2.50
2022-11-06T05:30:52.197Z,2.50
2022-11-06T05:33:37.857Z,2.50
2022-11-06T05:36:23.425Z,2.50
2022-11-06T05:39:09.014Z,2.40
2022-11-06T05:41:54.404Z,2.30
2022-11-06T05:44:39.830Z,2.30
2022-11-06T05:47:25.393Z,2.30
2022-11-06T05:50:11.076Z,2.30
2022-11-06T05:52:56.408Z,2.30
2022-11-06T05:55:41.873Z,2.20
2022-11-06T05:58:28.332Z,2.20
2022-11-06T06:01:14.099Z,2.20
2022-11-06T06:04:00.105Z,2.20
2022-11-06T06:06:45.933Z,2.20
2022-11-06T06:09:31.485Z,2.20
2022-11-06T06:12:17.244Z,2.20
2022-11-06T06:15:02.893Z,2.20
2022-11-06T06:17:48.529Z,2.20
2022-11-06T06:20:34.519Z,2.20
2022-11-06T06:23:19.961Z,2.20
2022-11-06T06:26:06.184Z,2.20
2022-11-06T06:28:52.061Z,2.20
2022-11-06T06:31:37.909Z,2.20
2022-11-06T06:34:23.159Z,2.20
2022-11-06T06:37:09.282Z,2.20
2022-11-06T06:39:55.268Z,2.30
2022-11-06T06:42:49.560Z,2.40
2022-11-06T06:45:35.433Z,2.40
2022-11-06T06:48:20.580Z,2.30
2022-11-06T06:51:07.838Z,2.00
2022-11-06T06:53:53.545Z,2.10
2022-11-06T06:56:38.806Z,2.20
2022-11-06T06:59:24.456Z,2.10
2022-11-06T07:02:10.632Z,2.10
2022-11-06T07:04:56.402Z,2.20
2022-11-06T07:07:41.789Z,2.30
2022-11-06T07:10:28.547Z,2.40
2022-11-06T07:13:14.360Z,2.40
2022-11-06T07:16:02.308Z,2.30
2022-11-06T07:18:47.598Z,2.30
2022-11-06T07:21:33.366Z,2.40
2022-11-06T07:24:18.952Z,2.30
2022-11-06T07:27:04.797Z,2.40
2022-11-06T07:29:50.155Z,2.50
2022-11-06T07:32:36.036Z,2.40
2022-11-06T07:35:21.521Z,2.50
2022-11-06T07:38:07.623Z,2.60
2022-11-06T07:40:53.010Z,2.70
2022-11-06T07:43:39.174Z,2.70
2022-11-06T07:46:25.032Z,2.80
2022-11-06T07:49:13.827Z,2.90
2022-11-06T07:51:59.491Z,2.80
2022-11-06T07:54:44.943Z,2.90
2022-11-06T07:57:30.638Z,2.90
2022-11-06T08:00:16.375Z,3.00
2022-11-06T08:03:01.930Z,3.00
2022-11-06T08:05:47.927Z,3.10
2022-11-06T08:08:33.413Z,3.10
2022-11-06T08:11:18.861Z,3.20
2022-11-06T08:14:04.491Z,3.30
2022-11-06T08:16:50.250Z,3.30
2022-11-06T08:19:36.022Z,3.40
2022-11-06T08:22:21.272Z,3.50
2022-11-06T08:25:07.710Z,3.60
2022-11-06T08:27:56.058Z,3.80
2022-11-06T08:30:41.683Z,3.90
2022-11-06T08:33:27.320Z,4.20
2022-11-06T08:36:12.931Z,4.60
2022-11-06T08:38:58.454Z,4.90
2022-11-06T08:41:45.277Z,5.30
2022-11-06T08:44:31.189Z,5.60
2022-11-06T08:47:16.732Z,5.70
2022-11-06T08:50:02.482Z,5.90
2022-11-06T08:52:48.112Z,6.00
2022-11-06T08:55:35.930Z,6.00
2022-11-06T08:58:21.223Z,5.80
2022-11-06T09:01:06.750Z,5.70
2022-11-06T09:03:52.510Z,5.60
2022-11-06T09:06:38.363Z,5.60
2022-11-06T09:09:23.898Z,5.60
2022-11-06T09:12:09.351Z,5.50
2022-11-06T09:14:55.160Z,5.50
2022-11-06T09:17:47.704Z,5.40
2022-11-06T09:20:33.304Z,5.40
2022-11-06T09:23:18.799Z,5.40
2022-11-06T09:26:04.461Z,5.40
2022-11-06T09:28:50.476Z,5.40
2022-11-06T09:31:36.116Z,5.40
2022-11-06T09:34:21.749Z,5.40
2022-11-06T09:37:07.116Z,5.30
2022-11-06T09:39:53.095Z,5.20
2022-11-06T09:43:02.399Z,5.10
2022-11-06T09:45:54.733Z,5.20
2022-11-06T09:48:46.580Z,5.20
2022-11-06T09:51:53.990Z,5.10
2022-11-06T09:55:19.096Z,5.20
2022-11-06T09:58:18.448Z,5.40
2022-11-06T10:01:27.778Z,5.60
2022-11-06T10:04:25.844Z,5.80
2022-11-06T10:07:27.263Z,5.80
2022-11-06T10:10:17.919Z,5.90
2022-11-06T10:13:27.551Z,5.90
2022-11-06T10:16:36.536Z,5.80
2022-11-06T10:19:37.293Z,5.90
2022-11-06T10:22:36.473Z,6.00
2022-11-06T10:25:36.832Z,6.10
2022-11-06T10:28:32.498Z,6.20
2022-11-06T10:31:33.314Z,6.40
2022-11-06T10:34:46.011Z,6.50
2022-11-06T10:37:52.448Z,6.60
2022-11-06T10:40:39.290Z,6.70
2022-11-06T10:43:32.242Z,6.80
2022-11-06T10:46:38.987Z,6.90
2022-11-06T10:49:36.876Z,6.90
2022-11-06T10:52:22.478Z,6.70
2022-11-06T10:55:29.263Z,6.60
2022-11-06T10:58:29.046Z,6.50
2022-11-06T11:01:15.193Z,6.60
2022-11-06T11:04:01.810Z,6.60
2022-11-06T11:06:47.287Z,6.60
2022-11-06T11:09:34.202Z,6.70
2022-11-06T11:12:28.362Z,6.90
2022-11-06T11:15:18.443Z,7.10
2022-11-06T11:18:18.921Z,7.30
2022-11-06T11:21:06.366Z,7.50
2022-11-06T11:24:00.990Z,7.70
2022-11-06T11:26:54.035Z,8.00
2022-11-06T11:29:48.111Z,8.10
2022-11-06T11:32:34.010Z,8.20
2022-11-06T11:35:25.379Z,8.50
2022-11-06T11:38:14.210Z,8.70
2022-11-06T11:41:20.077Z,8.90
2022-11-06T11:44:14.562Z,9.20
2022-11-06T11:47:00.361Z,9.50
2022-11-06T11:49:46.308Z,9.60
2022-11-06T11:52:31.736Z,9.50
2022-11-06T11:55:19.439Z,9.70
2022-11-06T11:58:18.252Z,9.80
2022-11-06T12:01:05.434Z,10.10
2022-11-06T12:03:52.777Z,10.30
2022-11-06T12:06:50.547Z,10.40
2022-11-06T12:09:43.705Z,10.40
2022-11-06T12:12:33.384Z,10.50
2022-11-06T12:15:22.298Z,10.60
2022-11-06T12:18:14.615Z,10.80
2022-11-06T12:21:23.193Z,10.70
2022-11-06T12:24:24.692Z,10.80
2022-11-06T12:27:20.684Z,10.80
2022-11-06T12:30:12.045Z,10.70
2022-11-06T12:33:45.473Z,10.70
2022-11-06T12:36:34.965Z,10.70
2022-11-06T12:39:25.554Z,10.90
2022-11-06T12:42:13.830Z,10.90
2022-11-06T12:45:00.299Z,11.00
2022-11-06T12:47:57.857Z,11.10
2022-11-06T12:51:00.280Z,11.30
2022-11-06T12:54:00.581Z,11.30
2022-11-06T12:57:15.256Z,11.30
2022-11-06T13:00:26.014Z,11.20
2022-11-06T13:03:43.389Z,11.10
2022-11-06T13:06:53.454Z,11.10
2022-11-06T13:09:50.568Z,11.00
2022-11-06T13:12:51.413Z,11.00
2022-11-06T13:15:42.962Z,11.10
2022-11-06T13:18:39.866Z,11.10
2022-11-06T13:21:34.208Z,11.10
2022-11-06T13:24:41.750Z,11.10
2022-11-06T13:27:42.714Z,11.00
2022-11-06T13:30:29.876Z,11.00
2022-11-06T13:33:44.531Z,11.10
2022-11-06T13:36:31.541Z,11.00
2022-11-06T13:39:32.946Z,11.00
2022-11-06T13:42:32.157Z,11.10
2022-11-06T13:45:18.225Z,11.10
2022-11-06T13:48:37.646Z,11.10
2022-11-06T13:51:33.241Z,11.10
2022-11-06T13:54:39.565Z,11.10
2022-11-06T13:57:59.916Z,11.20
2022-11-06T14:00:57.271Z,11.20
2022-11-06T14:04:25.968Z,11.20
2022-11-06T14:07:12.397Z,11.20
2022-11-06T14:09:58.157Z,11.20
2022-11-06T14:12:48.008Z,11.10
2022-11-06T14:15:40.041Z,11.10
2022-11-06T14:18:25.752Z,11.00
2022-11-06T14:21:26.415Z,10.90
2022-11-06T14:24:29.910Z,10.80
2022-11-06T14:27:18.791Z,10.70
2022-11-06T14:30:15.215Z,10.60
2022-11-06T14:33:01.030Z,10.50
2022-11-06T14:35:50.664Z,10.50
2022-11-06T14:38:36.849Z,10.40
2022-11-06T14:41:34.981Z,10.20
2022-11-06T14:44:32.611Z,10.20
2022-11-06T14:47:26.807Z,10.00
2022-11-06T14:50:18.712Z,9.90
2022-11-06T14:53:20.471Z,9.80
2022-11-06T14:56:08.593Z,9.80
2022-11-06T14:59:03.388Z,9.90
2022-11-06T15:01:58.946Z,9.90
2022-11-06T15:04:56.928Z,9.90
2022-11-06T15:08:04.473Z,9.90
2022-11-06T15:10:49.263Z,10.00
2022-11-06T15:13:35.909Z,10.00
2022-11-06T15:16:22.831Z,10.00
2022-11-06T15:19:15.248Z,10.00
2022-11-06T15:22:16.290Z,9.90
2022-11-06T15:25:20.417Z,9.80
2022-11-06T15:28:17.782Z,9.70
2022-11-06T15:31:12.189Z,9.70
2022-11-06T15:34:07.575Z,9.70
2022-11-06T15:37:12.341Z,9.60
2022-11-06T15:40:01.266Z,9.60
2022-11-06T15:42:47.689Z,9.50
2022-11-06T15:45:33.482Z,9.30
2022-11-06T15:48:23.297Z,9.20
2022-11-06T15:51:24.115Z,9.00
2022-11-06T15:54:14.552Z,8.90
2022-11-06T15:57:12.541Z,8.90
2022-11-06T16:00:27.493Z,8.90
2022-11-06T16:03:17.121Z,8.80
2022-11-06T16:06:03.931Z,8.80
2022-11-06T16:08:51.304Z,8.70
2022-11-06T16:11:37.298Z,8.70
2022-11-06T16:14:23.599Z,8.60
2022-11-06T16:17:11.883Z,8.60
2022-11-06T16:20:01.896Z,8.60
2022-11-06T16:22:47.300Z,8.60
2022-11-06T16:25:32.940Z,8.50
2022-11-06T16:28:21.665Z,8.40
2022-11-06T16:31:19.197Z,8.40
2022-11-06T16:34:07.843Z,8.30
2022-11-06T16:37:02.480Z,8.40
2022-11-06T16:39:53.047Z,8.20
2022-11-06T16:42:39.002Z,8.10
2022-11-06T16:45:24.539Z,8.10
2022-11-06T16:48:09.656Z,8.20
2022-11-06T16:51:01.133Z,8.40
2022-11-06T16:54:00.983Z,8.40
2022-11-06T16:56:46.595Z,8.30
2022-11-06T16:59:32.046Z,8.20
2022-11-06T17:02:24.303Z,8.20
2022-11-06T17:05:25.178Z,8.20
2022-11-06T17:08:28.989Z,8.10
2022-11-06T17:11:21.838Z,8.20
2022-11-06T17:14:17.692Z,8.20
2022-11-06T17:17:03.973Z,8.20
2022-11-06T17:19:49.615Z,8.20
2022-11-06T17:22:35.394Z,8.20
2022-11-06T17:25:20.704Z,8.10
2022-11-06T17:28:06.598Z,8.20
2022-11-06T17:30:52.060Z,8.30
2022-11-06T17:33:37.726Z,8.30
2022-11-06T17:36:28.123Z,8.20
2022-11-06T17:39:13.764Z,8.50
2022-11-06T17:41:59.037Z,8.50
2022-11-06T17:44:44.656Z,8.40
2022-11-06T17:47:30.027Z,8.40
2022-11-06T17:50:15.420Z,8.30
2022-11-06T17:53:00.864Z,8.40
2022-11-06T17:55:46.048Z,8.30
2022-11-06T17:58:32.690Z,8.30
2022-11-06T18:01:18.418Z,8.20
2022-11-06T18:04:03.849Z,8.20
2022-11-06T18:06:56.135Z,8.20
2022-11-06T18:09:42.228Z,8.30
2022-11-06T18:12:28.830Z,8.30
2022-11-06T18:15:14.329Z,8.30
2022-11-06T18:17:59.979Z,8.20
2022-11-06T18:20:46.567Z,8.20
2022-11-06T18:23:32.076Z,8.10
2022-11-06T18:26:18.845Z,8.10
2022-11-06T18:29:06.154Z,8.00
2022-11-06T18:31:51.540Z,7.90
2022-11-06T18:34:37.726Z,7.90
2022-11-06T18:37:25.732Z,7.90
2022-11-06T18:40:12.662Z,8.00
2022-11-06T18:42:58.923Z,7.90
2022-11-06T18:45:44.905Z,7.90
2022-11-06T18:48:32.271Z,8.00
2022-11-06T18:51:33.876Z,8.00
2022-11-06T18:54:19.858Z,8.00
2022-11-06T18:57:05.296Z,8.10
2022-11-06T18:59:50.851Z,8.10
2022-11-06T19:02:36.365Z,8.00
2022-11-06T19:05:22.374Z,8.10
2022-11-06T19:08:08.171Z,8.10
2022-11-06T19:10:53.519Z,8.10
2022-11-06T19:13:44.768Z,8.10
2022-11-06T19:16:33.026Z,8.00
2022-11-06T19:19:25.263Z,7.90
2022-11-06T19:22:11.715Z,7.90
2022-11-06T19:24:57.114Z,8.00
2022-11-06T19:27:43.063Z,7.90
2022-11-06T19:30:28.400Z,8.00
2022-11-06T19:33:14.479Z,8.20
2022-11-06T19:36:01.528Z,8.30
2022-11-06T19:38:47.186Z,8.20
2022-11-06T19:41:32.826Z,8.20
2022-11-06T19:44:18.291Z,8.20
2022-11-06T19:47:03.995Z,8.30
2022-11-06T19:49:49.299Z,8.40
2022-11-06T19:52:41.398Z,8.40
2022-11-06T19:55:28.855Z,8.40
2022-11-06T19:58:16.748Z,8.50
2022-11-06T20:01:15.738Z,8.50
2022-11-06T20:04:02.061Z,8.50
2022-11-06T20:06:47.689Z,8.60
2022-11-06T20:09:34.452Z,8.70
2022-11-06T20:12:20.082Z,8.70
2022-11-06T20:15:06.198Z,8.80
2022-11-06T20:17:51.881Z,8.80
2022-11-06T20:20:37.614Z,8.70
2022-11-06T20:23:23.436Z,8.70
2022-11-06T20:26:09.023Z,8.60
2022-11-06T20:28:54.402Z,8.60
2022-11-06T20:31:41.217Z,8.60
2022-11-06T20:34:27.113Z,8.60
2022-11-06T20:37:12.648Z,8.90
2022-11-06T20:39:58.264Z,8.90
2022-11-06T20:42:43.822Z,9.00
2022-11-06T20:45:29.283Z,9.00
2022-11-06T20:48:14.863Z,9.10
2022-11-06T20:51:02.398Z,9.20
2022-11-06T20:53:49.356Z,9.30
2022-11-06T20:56:35.190Z,9.40
2022-11-06T20:59:20.846Z,9.40
2022-11-06T21:02:06.563Z,9.50
2022-11-06T21:04:52.292Z,9.50
2022-11-06T21:07:38.125Z,9.50
2022-11-06T21:10:23.715Z,9.50
2022-11-06T21:13:09.250Z,9.60
2022-11-06T21:15:58.935Z,9.60
2022-11-06T21:18:45.627Z,9.60
2022-11-06T21:21:33.809Z,9.60
2022-11-06T21:24:19.352Z,9.70
2022-11-06T21:27:04.762Z,9.70
2022-11-06T21:29:50.382Z,9.70
2022-11-06T21:32:35.895Z,9.60
2022-11-06T21:35:21.591Z,9.60
2022-11-06T21:38:08.691Z,9.50
2022-11-06T21:40:54.354Z,9.40
2022-11-06T21:43:40.548Z,9.50
2022-11-06T21:46:25.865Z,9.40
2022-11-06T21:49:11.760Z,9.50
2022-11-06T21:52:16.876Z,9.60
2022-11-06T21:55:20.841Z,9.50
2022-11-06T21:58:06.472Z,9.50
2022-11-06T22:00:52.120Z,9.40
2022-11-06T22:03:37.471Z,9.40
2022-11-06T22:06:25.571Z,9.40
2022-11-06T22:09:13.823Z,9.40
2022-11-06T22:11:59.818Z,9.60
2022-11-06T22:14:45.531Z,9.70
2022-11-06T22:17:31.556Z,9.70
2022-11-06T22:20:17.287Z,9.80
2022-11-06T22:23:02.618Z,9.80
2022-11-06T22:25:48.138Z,9.80
2022-11-06T22:28:34.236Z,9.80
2022-11-06T22:31:19.860Z,9.90
2022-11-06T22:34:05.495Z,9.90
2022-11-06T22:36:50.717Z,10.00
2022-11-06T22:39:36.905Z,10.00
2022-11-06T22:42:22.595Z,10.00
2022-11-06T22:45:08.255Z,10.00
2022-11-06T22:47:54.153Z,10.00
2022-11-06T22:50:39.550Z,10.10
2022-11-06T22:53:25.223Z,10.00
2022-11-06T22:56:14.589Z,10.00
2022-11-06T22:59:08.516Z,9.90
2022-11-06T23:01:54.623Z,9.90
2022-11-06T23:04:40.670Z,9.80
2022-11-06T23:07:26.307Z,9.70
2022-11-06T23:10:12.074Z,9.70
2022-11-06T23:12:58.075Z,9.80
2022-11-06T23:15:43.344Z,9.90
2022-11-06T23:18:28.743Z,10.00
2022-11-06T23:21:17.498Z,10.10
2022-11-06T23:24:03.989Z,10.20
2022-11-06T23:26:49.742Z,10.30
2022-11-06T23:29:35.376Z,10.40
2022-11-06T23:32:20.806Z,10.40
2022-11-06T23:35:13.098Z,10.40
2022-11-06T23:37:59.383Z,10.50
2022-11-06T23:40:44.830Z,10.50
2022-11-06T23:43:30.609Z,10.40
2022-11-06T23:46:24.493Z,10.40
2022-11-06T23:49:10.212Z,10.30
2022-11-06T23:51:55.718Z,10.40
2022-11-06T23:54:41.512Z,10.40
2022-11-06T23:57:27.108Z,10.50
